Time;durP1;ratioP1;P1;durP2;ratioP2;P2;SDS_P1;SDS_P2;PMS_P1;PMS_P2;Temp;Humidity;BMP_temperature;BMP_pressure;BME280_temperature;BME280_humidity;BME280_pressure;Samples;Min_cycle;Max_cycle;Signal;HPM_P1;HPM_P2
2021/11/30 00:02:59;;;;;;;2.92;2.69;;;;;;;2.68;83.95;99334.47;1930486;81;66819;-77
2021/11/30 00:06:03;;;;;;;3.95;2.30;;;;;;;2.70;84.10;99337.09;1930548;84;20361;-77
2021/11/30 00:12:36;;;;;;;;;;;;;;;2.71;84.30;99343.94;1930602;84;20428;-77
2021/11/30 00:15:39;;;;;;;6.53;2.41;;;;;;;2.69;84.21;99340.44;1925602;82;24393;-77
2021/11/30 00:18:42;;;;;;;3.85;2.65;;;;;;;2.69;84.42;99343.91;1930779;84;20313;-77
2021/11/30 00:21:45;;;;;;;4.36;2.89;;;;;;;2.65;84.28;99351.47;1930843;84;20353;-77
2021/11/30 00:24:49;;;;;;;3.90;2.17;;;;;;;2.67;84.56;99358.34;1930724;84;20410;-77
2021/11/30 00:27:52;;;;;;;2.91;2.56;;;;;;;2.70;84.62;99362.72;1930669;84;20833;-77
2021/11/30 00:30:55;;;;;;;6.70;2.96;;;;;;;2.69;84.48;99359.28;1930150;81;27283;-77
2021/11/30 00:33:58;;;;;;;4.40;2.78;;;;;;;2.68;84.37;99354.09;1986840;73;20791;-78
2021/11/30 00:37:01;;;;;;;4.21;2.71;;;;;;;2.67;84.57;99354.94;1930663;84;20360;-78
2021/11/30 00:40:04;;;;;;;4.10;2.35;;;;;;;2.68;84.43;99338.72;1929908;84;20696;-78
2021/11/30 00:43:09;;;;;;;3.53;2.53;;;;;;;2.69;84.38;99355.84;1930738;84;20409;-78
2021/11/30 00:46:15;;;;;;;5.80;2.89;;;;;;;2.72;84.48;99335.44;1928355;82;25365;-78
2021/11/30 00:49:19;;;;;;;6.21;2.59;;;;;;;2.72;84.47;99341.44;1930887;84;20376;-78
2021/11/30 00:52:22;;;;;;;3.58;2.84;;;;;;;2.73;84.51;99329.47;1930019;84;20341;-78
2021/11/30 00:55:25;;;;;;;6.71;2.65;;;;;;;2.73;84.48;99332.91;1928267;84;20349;-78
2021/11/30 00:58:27;;;;;;;6.84;2.61;;;;;;;2.71;84.37;99338.81;1930992;84;20353;-78
2021/11/30 01:01:31;;;;;;;2.80;2.39;;;;;;;2.68;84.40;99339.59;1926640;81;22458;-78
2021/11/30 01:04:34;;;;;;;6.86;3.01;;;;;;;2.67;84.54;99335.28;1927961;84;20342;-78
2021/11/30 01:07:37;;;;;;;3.33;2.53;;;;;;;2.66;84.50;99345.50;1927274;84;20337;-78
2021/11/30 01:10:39;;;;;;;3.15;2.61;;;;;;;2.65;84.52;99333.50;1930942;84;20353;-78
2021/11/30 01:13:42;;;;;;;5.36;2.71;;;;;;;2.67;84.64;99334.41;1930972;84;20356;-78
2021/11/30 01:16:45;;;;;;;3.28;2.55;;;;;;;2.68;84.64;99338.72;1929918;81;23442;-78
2021/11/30 01:19:48;;;;;;;4.14;2.94;;;;;;;2.69;84.72;99330.19;1931239;84;21037;-78
2021/11/30 01:22:52;;;;;;;3.45;2.67;;;;;;;2.64;84.88;99330.09;1930769;84;21643;-78
2021/11/30 01:25:56;;;;;;;8.10;3.04;;;;;;;2.66;84.97;99330.13;1930517;84;20350;-78
2021/11/30 01:28:59;;;;;;;8.19;3.69;;;;;;;2.67;85.02;99334.41;1930613;84;20365;-78
2021/11/30 01:32:02;;;;;;;5.15;2.99;;;;;;;2.66;85.05;99318.19;1929493;82;23755;-78
2021/11/30 01:35:05;;;;;;;5.99;2.86;;;;;;;2.69;85.08;99335.31;1931333;84;20371;-78
2021/11/30 01:38:07;;;;;;;3.34;2.81;;;;;;;2.72;85.07;99343.13;1931738;84;20369;-78
2021/11/30 01:41:13;;;;;;;7.47;3.54;;;;;;;2.72;85.13;99336.31;1931415;84;20380;-78
2021/11/30 01:45:20;;;;;;;5.94;3.10;;;;;;;2.72;84.93;99332.88;1930772;84;20450;-78
2021/11/30 01:51:05;;;;;;;4.06;3.13;;;;;;;2.70;84.94;99331.97;1930546;84;20341;-78
2021/11/30 01:54:08;;;;;;;6.63;3.19;;;;;;;2.69;84.96;99328.53;1931760;84;20839;-78
2021/11/30 01:57:14;;;;;;;5.10;3.13;;;;;;;2.70;84.90;99327.72;1931413;84;20423;-78
2021/11/30 02:00:18;;;;;;;7.99;3.69;;;;;;;2.69;84.96;99335.31;1930359;81;21307;-78
2021/11/30 02:03:21;;;;;;;10.07;3.67;;;;;;;2.68;84.76;99339.59;1931559;84;20372;-78
2021/11/30 02:06:24;;;;;;;3.83;2.78;;;;;;;2.67;84.65;99334.41;1930111;84;20398;-78
2021/11/30 02:09:27;;;;;;;5.71;3.15;;;;;;;2.66;84.89;99325.00;1930831;84;20407;-78
2021/11/30 02:12:30;;;;;;;5.13;3.50;;;;;;;2.69;84.84;99331.09;1931143;84;20329;-78
2021/11/30 02:15:38;;;;;;;11.76;3.29;;;;;;;2.67;84.93;99327.59;1930011;84;20369;-78
2021/11/30 02:18:44;;;;;;;4.32;2.59;;;;;;;2.69;85.06;99320.84;1930505;81;21756;-78
2021/11/30 02:21:46;;;;;;;3.81;2.84;;;;;;;2.69;85.17;99305.47;1931877;84;20191;-78
2021/11/30 02:24:49;;;;;;;6.29;3.38;;;;;;;2.69;85.09;99310.59;1931065;84;20406;-78
2021/11/30 02:27:52;;;;;;;4.96;3.03;;;;;;;2.65;85.13;99301.06;1928186;84;20412;-78
2021/11/30 02:30:55;;;;;;;5.68;3.69;;;;;;;2.66;85.30;99307.06;1929788;81;25985;-78
2021/11/30 02:33:58;;;;;;;6.31;3.47;;;;;;;2.68;85.39;99307.97;1930531;84;20354;-78
2021/11/30 02:37:06;;;;;;;6.45;3.35;;;;;;;2.67;85.23;99309.66;1931418;84;20998;-78
2021/11/30 02:40:09;;;;;;;4.59;3.59;;;;;;;2.68;85.33;99298.56;1931408;84;20321;-78
2021/11/30 02:43:12;;;;;;;5.64;4.03;;;;;;;2.66;85.43;99309.63;1931415;84;20379;-78
2021/11/30 02:46:45;;;;;;;11.01;4.19;;;;;;;2.66;85.52;99307.94;1927623;81;22987;-78
2021/11/30 02:49:48;;;;;;;5.46;3.99;;;;;;;2.68;85.38;99308.81;1927243;84;20354;-78
2021/11/30 02:52:51;;;;;;;9.99;4.60;;;;;;;2.68;85.31;99310.53;1925932;84;20388;-78
2021/11/30 02:55:54;;;;;;;5.74;3.59;;;;;;;2.69;85.40;99302.91;1927081;84;21006;-78
2021/11/30 02:58:56;;;;;;;6.38;3.38;;;;;;;2.73;85.43;99309.84;1925951;84;20489;-78
2021/11/30 03:02:02;;;;;;;9.32;3.91;;;;;;;2.68;85.15;99310.53;1925551;81;25392;-78
2021/11/30 03:05:06;;;;;;;6.68;3.80;;;;;;;2.69;85.12;99322.50;1932791;84;20451;-78
2021/11/30 03:08:09;;;;;;;8.02;3.94;;;;;;;2.71;85.11;99315.75;1933107;84;20454;-78
2021/11/30 03:29:33;;;;;;;8.32;3.25;;;;;;;2.60;85.07;99288.97;1940834;74;20396;-80
2021/11/30 03:34:00;;;;;;;3.62;3.13;;;;;;;2.60;85.08;99281.28;1370525;82;52360733;-80
2021/11/30 03:37:08;;;;;;;3.59;3.29;;;;;;;2.56;85.31;99275.22;1931868;84;20213;-78
2021/11/30 03:40:11;;;;;;;5.90;3.67;;;;;;;2.56;85.47;99261.53;1932293;84;20414;-79
2021/11/30 03:43:14;;;;;;;6.93;3.06;;;;;;;2.54;85.30;99260.63;1932861;84;20325;-78
2021/11/30 03:46:17;;;;;;;5.07;3.09;;;;;;;2.54;85.42;99268.31;1931877;82;31557;-79
2021/11/30 03:49:20;;;;;;;4.50;3.44;;;;;;;2.54;85.37;99273.44;1932404;84;20452;-78
2021/11/30 03:52:22;;;;;;;6.64;3.08;;;;;;;2.51;85.36;99271.66;1932794;84;20329;-78
2021/11/30 03:55:25;;;;;;;4.41;3.35;;;;;;;2.52;85.44;99268.28;1933016;84;20330;-78
2021/11/30 03:58:32;;;;;;;4.04;3.15;;;;;;;2.51;85.51;99268.22;1932228;84;20366;-78
2021/11/30 04:01:35;;;;;;;5.60;2.78;;;;;;;2.52;85.90;99260.59;1931851;82;25059;-78
2021/11/30 04:04:42;;;;;;;7.05;3.63;;;;;;;2.52;86.10;99258.03;1931896;84;20333;-78
2021/11/30 04:07:45;;;;;;;4.01;3.36;;;;;;;2.47;86.22;99251.91;1931751;84;20453;-78
2021/11/30 04:10:48;;;;;;;3.49;2.90;;;;;;;2.44;86.26;99239.03;1931467;84;20353;-79
2021/11/30 04:13:50;;;;;;;5.30;3.42;;;;;;;2.40;86.25;99245.78;1930898;84;20837;-78
2021/11/30 04:16:53;;;;;;;6.39;3.80;;;;;;;2.41;86.54;99236.38;1930803;81;21424;-78
2021/11/30 04:19:57;;;;;;;5.55;3.25;;;;;;;2.39;86.52;99238.03;1931796;84;20353;-78
2021/11/30 04:22:59;;;;;;;6.21;3.61;;;;;;;2.44;86.52;99241.59;1931445;84;20435;-78
2021/11/30 04:26:02;;;;;;;5.57;3.70;;;;;;;2.40;86.61;99227.84;1931559;84;20349;-78
2021/11/30 04:29:05;;;;;;;4.63;3.83;;;;;;;2.39;86.92;99220.13;1931073;84;20337;-78
2021/11/30 04:32:08;;;;;;;6.13;3.70;;;;;;;2.38;87.02;99218.38;1929530;81;25944;-77
2021/11/30 04:35:12;;;;;;;3.22;2.88;;;;;;;2.39;87.08;99215.00;1931593;84;20353;-77
2021/11/30 04:38:15;;;;;;;5.51;3.16;;;;;;;2.40;87.04;99203.91;1931462;84;20453;-78
2021/11/30 04:41:17;;;;;;;4.68;3.28;;;;;;;2.38;87.23;99191.06;1930971;84;20377;-77
2021/11/30 04:44:21;;;;;;;4.35;3.29;;;;;;;2.34;87.53;99202.06;1931435;84;20383;-77
2021/11/30 04:47:28;;;;;;;6.49;3.33;;;;;;;2.30;87.94;99181.44;1929820;81;23255;-77
2021/11/30 04:50:35;;;;;;;4.25;3.22;;;;;;;2.30;88.28;99186.56;1931421;84;21181;-77
2021/11/30 04:53:40;;;;;;;5.45;3.33;;;;;;;2.33;88.60;99179.81;1930798;84;20370;-77
2021/11/30 04:56:42;;;;;;;4.60;3.21;;;;;;;2.33;88.83;99184.94;1931077;84;20354;-77
2021/11/30 04:59:45;;;;;;;5.11;3.15;;;;;;;2.25;89.03;99198.41;1929526;84;20850;-76
2021/11/30 05:02:49;;;;;;;5.15;3.13;;;;;;;2.20;89.48;99198.28;1929084;81;26090;-76
2021/11/30 05:05:52;;;;;;;6.82;2.59;;;;;;;2.23;89.60;99194.94;1930282;84;20345;-76
2021/11/30 05:08:54;;;;;;;4.14;2.74;;;;;;;2.20;89.58;99193.16;1930329;84;20325;-77
2021/11/30 05:11:57;;;;;;;2.51;2.31;;;;;;;2.20;89.74;99193.16;1931707;84;20454;-76
2021/11/30 05:15:00;;;;;;;6.81;3.75;;;;;;;2.20;89.43;99193.16;1930539;84;20373;-77
2021/11/30 05:18:04;;;;;;;5.75;2.71;;;;;;;2.23;89.47;99182.13;1930137;81;23829;-76
2021/11/30 05:21:07;;;;;;;3.21;2.33;;;;;;;2.21;89.13;99187.22;1929882;84;20349;-77
2021/11/30 05:24:10;;;;;;;5.69;1.81;;;;;;;2.25;89.00;99186.44;1930016;84;20410;-76
2021/11/30 05:27:13;;;;;;;3.11;2.03;;;;;;;2.24;88.76;99179.59;1929527;84;20370;-76
2021/11/30 05:30:19;;;;;;;4.68;2.39;;;;;;;2.21;88.54;99184.66;1927834;82;23490;-76
2021/11/30 05:33:22;;;;;;;1.70;1.60;;;;;;;2.23;88.55;99188.13;1926337;84;20886;-76
2021/11/30 05:36:26;;;;;;;2.15;1.65;;;;;;;2.20;88.08;99187.19;1930021;84;21155;-76
2021/11/30 05:39:29;;;;;;;1.98;1.74;;;;;;;2.18;88.20;99181.16;1930726;84;20365;-77
2021/11/30 05:42:31;;;;;;;2.97;2.09;;;;;;;2.15;88.27;99175.91;1929748;84;20401;-77
2021/11/30 05:45:34;;;;;;;3.60;1.55;;;;;;;2.11;88.56;99173.28;1927999;82;23031;-77
2021/11/30 05:48:37;;;;;;;1.84;1.60;;;;;;;2.12;88.90;99154.53;1929859;84;21318;-76
2021/11/30 05:51:40;;;;;;;3.33;1.46;;;;;;;2.08;89.10;99137.38;1929579;84;20346;-76
2021/11/30 05:54:43;;;;;;;2.55;2.35;;;;;;;2.08;89.17;99139.94;1929986;84;20802;-77
2021/11/30 05:57:45;;;;;;;2.83;1.64;;;;;;;2.04;89.36;99156.06;1929366;84;21403;-76
2021/11/30 06:00:49;;;;;;;1.99;1.89;;;;;;;2.05;89.43;99139.00;1928173;81;25183;-76
2021/11/30 06:06:55;;;;;;;2.22;1.70;;;;;;;2.04;89.78;99133.00;1930034;84;20353;-76
2021/11/30 06:09:57;;;;;;;1.60;1.50;;;;;;;2.07;89.96;99125.41;1929779;84;20668;-76
2021/11/30 06:13:00;;;;;;;1.84;1.48;;;;;;;2.06;90.23;99130.47;1929990;84;20369;-77
2021/11/30 06:16:03;;;;;;;2.59;1.74;;;;;;;2.06;90.43;99133.03;1928195;81;22241;-77
2021/11/30 06:19:07;;;;;;;3.79;2.25;;;;;;;2.07;90.69;99132.22;1926556;84;20369;-77
2021/11/30 06:22:11;;;;;;;2.60;1.76;;;;;;;2.08;90.82;99134.81;1929808;84;20404;-76
2021/11/30 06:25:14;;;;;;;2.89;1.64;;;;;;;2.09;90.99;99131.41;1930677;84;20443;-76
2021/11/30 06:28:17;;;;;;;2.44;1.80;;;;;;;2.10;91.09;99132.28;1931204;84;20349;-75
2021/11/30 06:31:19;;;;;;;3.41;1.66;;;;;;;2.08;91.11;99124.56;1925222;81;21431;-75
2021/11/30 06:34:22;;;;;;;1.69;1.59;;;;;;;2.05;91.21;99129.63;1927282;84;20405;-75
2021/11/30 06:37:25;;;;;;;3.19;1.90;;;;;;;1.98;91.41;99126.88;1931480;84;20350;-76
2021/11/30 06:40:30;;;;;;;1.66;1.50;;;;;;;1.91;91.69;99117.28;1930767;84;20364;-76
2021/11/30 06:43:32;;;;;;;2.14;1.94;;;;;;;1.94;91.92;99119.91;1930248;84;20382;-77
2021/11/30 06:46:35;;;;;;;3.81;1.79;;;;;;;1.94;92.11;99120.78;1929144;81;25866;-76
2021/11/30 06:49:39;;;;;;;2.63;1.85;;;;;;;1.94;92.27;99125.91;1926292;84;20415;-77
2021/11/30 06:52:43;;;;;;;1.36;1.30;;;;;;;1.97;92.58;99131.09;1928882;84;20337;-76
2021/11/30 06:55:46;;;;;;;1.65;1.41;;;;;;;2.00;92.60;99127.78;1929789;84;20330;-76
2021/11/30 06:58:48;;;;;;;1.56;1.46;;;;;;;2.02;92.64;99132.09;1930044;84;20337;-76
2021/11/30 07:01:51;;;;;;;1.45;1.19;;;;;;;2.01;92.67;99121.81;1928803;82;23064;-77
2021/11/30 07:04:55;;;;;;;1.55;1.40;;;;;;;1.99;92.87;99126.91;1924561;84;20986;-78
2021/11/30 07:14:42;;;;;;;1.98;1.16;;;;;;;2.00;93.69;99118.41;1929670;84;20345;-78
2021/11/30 07:17:45;;;;;;;1.34;1.24;;;;;;;2.03;93.81;99113.34;1928656;81;45570;-78
2021/11/30 07:20:48;;;;;;;3.08;0.96;;;;;;;2.05;93.94;99109.13;1930933;84;20359;-78
2021/11/30 07:23:50;;;;;;;1.11;1.08;;;;;;;2.10;94.09;99111.78;1931828;84;21924;-78
2021/11/30 07:26:53;;;;;;;2.41;1.30;;;;;;;2.09;94.15;99113.50;1930541;84;20322;-78
2021/11/30 07:30:12;;;;;;;;;;;;;;;2.14;94.14;99116.16;1931108;84;20368;-78
2021/11/30 07:33:15;;;;;;;0.80;0.80;;;;;;;2.15;94.22;99117.03;1930939;81;26230;-78
2021/11/30 07:36:19;;;;;;;1.02;0.91;;;;;;;2.16;94.33;99129.91;1930279;84;20414;-78
2021/11/30 07:39:23;;;;;;;1.26;1.00;;;;;;;2.16;94.40;99124.78;1930578;84;20446;-79
2021/11/30 07:42:30;;;;;;;1.06;0.90;;;;;;;2.22;94.53;99135.16;1930464;84;20904;-77
2021/11/30 07:45:33;;;;;;;0.85;0.85;;;;;;;2.25;94.48;99134.34;1927401;82;23985;-77
2021/11/30 07:48:37;;;;;;;0.91;0.80;;;;;;;2.27;94.52;99140.38;1930295;84;20430;-78
2021/11/30 07:51:40;;;;;;;0.80;0.80;;;;;;;2.26;94.42;99136.94;1930065;84;20390;-77
2021/11/30 07:54:47;;;;;;;0.90;0.79;;;;;;;2.30;94.50;99153.25;1929148;84;20979;-77
2021/11/30 07:57:50;;;;;;;1.06;1.00;;;;;;;2.30;94.42;99151.56;1927051;84;20418;-77
2021/11/30 08:00:53;;;;;;;1.77;1.00;;;;;;;2.31;94.46;99143.03;1929691;82;22616;-78
2021/11/30 08:03:55;;;;;;;1.04;0.98;;;;;;;2.29;94.42;99154.94;1929818;84;20351;-78
2021/11/30 08:06:58;;;;;;;0.74;0.74;;;;;;;2.29;94.31;99141.28;1930284;84;20418;-78
2021/11/30 08:10:08;;;;;;;0.74;0.74;;;;;;;2.30;94.29;99149.00;1933439;84;21013;-78
2021/11/30 08:13:11;;;;;;;1.67;0.80;;;;;;;2.29;94.33;99136.16;1932686;84;21147;-78
2021/11/30 08:16:13;;;;;;;0.71;0.71;;;;;;;2.31;94.54;99143.03;1930088;82;22928;-78
2021/11/30 08:19:16;;;;;;;0.95;0.69;;;;;;;2.33;94.66;99122.59;1931378;84;20349;-78
2021/11/30 08:22:19;;;;;;;0.94;0.70;;;;;;;2.37;94.69;99137.22;1931929;84;20355;-78
2021/11/30 08:25:22;;;;;;;0.70;0.70;;;;;;;2.32;94.62;99124.28;1929247;84;20337;-80
2021/11/30 08:28:24;;;;;;;0.71;0.71;;;;;;;2.38;94.80;99124.44;1932344;84;20385;-78
2021/11/30 08:31:27;;;;;;;0.80;0.80;;;;;;;2.42;94.75;99117.69;1930404;82;24266;-79
2021/11/30 08:34:30;;;;;;;0.86;0.86;;;;;;;2.40;94.60;99114.22;1932286;84;20370;-78
2021/11/30 08:37:33;;;;;;;0.70;0.68;;;;;;;2.39;94.57;99107.38;1930420;84;20941;-78
2021/11/30 08:40:36;;;;;;;1.16;0.90;;;;;;;2.42;94.66;99117.69;1930416;84;20401;-77
2021/11/30 08:43:39;;;;;;;0.98;0.86;;;;;;;2.39;94.80;99113.38;1932540;84;20373;-77
2021/11/30 08:46:41;;;;;;;0.76;0.76;;;;;;;2.45;95.11;99102.38;1930116;84;52562;-77
2021/11/30 08:49:44;;;;;;;1.17;0.70;;;;;;;2.49;95.33;99111.00;1930456;84;20393;-77
2021/11/30 08:52:48;;;;;;;0.82;0.70;;;;;;;2.55;95.46;99111.16;1932246;84;20375;-78
2021/11/30 08:55:51;;;;;;;0.70;0.70;;;;;;;2.60;95.54;99102.75;1931543;84;20396;-78
2021/11/30 08:58:54;;;;;;;0.85;0.70;;;;;;;2.65;95.49;99103.69;1932048;84;20358;-79
2021/11/30 09:01:57;;;;;;;0.70;0.70;;;;;;;2.67;95.62;99098.59;1932096;82;27718;-79
2021/11/30 09:05:00;;;;;;;0.79;0.63;;;;;;;2.68;95.56;99096.06;1933250;84;20392;-79
2021/11/30 09:08:03;;;;;;;0.86;0.76;;;;;;;2.73;95.62;99101.31;1931835;84;20353;-77
2021/11/30 09:11:05;;;;;;;1.00;1.00;;;;;;;2.72;95.45;99097.03;1929915;84;20383;-77
2021/11/30 09:14:09;;;;;;;0.79;0.79;;;;;;;2.73;95.59;99094.50;1930589;84;20822;-77
2021/11/30 09:17:13;;;;;;;0.60;0.60;;;;;;;2.74;95.52;99095.38;1929938;84;24463;-77
2021/11/30 09:20:15;;;;;;;0.63;0.63;;;;;;;2.79;95.49;99104.00;1931428;84;20358;-78
2021/11/30 09:23:18;;;;;;;0.71;0.71;;;;;;;2.80;95.40;99102.31;1931869;84;20376;-78
2021/11/30 09:26:21;;;;;;;0.70;0.66;;;;;;;2.80;95.29;99110.88;1932061;84;20341;-78
2021/11/30 09:29:23;;;;;;;1.59;0.70;;;;;;;2.81;95.10;99110.03;1931053;84;20870;-78
2021/11/30 09:32:30;;;;;;;0.60;0.60;;;;;;;2.79;95.14;99101.44;1930952;81;24344;-78
2021/11/30 09:35:38;;;;;;;0.69;0.65;;;;;;;2.81;95.19;99099.78;1931623;84;20349;-79
2021/11/30 09:38:42;;;;;;;0.76;0.76;;;;;;;2.84;95.14;99099.84;1930334;84;20401;-79
2021/11/30 09:41:46;;;;;;;0.96;0.70;;;;;;;2.86;95.10;99100.75;1929071;84;21245;-78
2021/11/30 09:44:49;;;;;;;0.63;0.63;;;;;;;2.84;94.92;99088.72;1929014;84;20939;-77
2021/11/30 09:47:53;;;;;;;0.60;0.60;;;;;;;2.84;95.04;99089.59;1922991;82;25521;-78
2021/11/30 09:50:57;;;;;;;0.68;0.68;;;;;;;2.88;95.15;99081.16;1928919;84;20353;-78
2021/11/30 09:54:00;;;;;;;0.65;0.65;;;;;;;2.90;95.17;99088.88;1927878;84;20353;-78
2021/11/30 09:57:03;;;;;;;0.86;0.60;;;;;;;2.93;95.40;99081.25;1926746;84;20374;-78
2021/11/30 10:00:08;;;;;;;0.84;0.84;;;;;;;2.97;95.57;99078.75;1926696;84;20393;-79
2021/11/30 10:03:27;;;;;;;0.50;0.50;;;;;;;2.98;95.44;99082.19;1927664;84;20368;-77
2021/11/30 10:06:31;;;;;;;0.51;0.49;;;;;;;3.01;95.31;99093.38;1926657;84;20362;-78
2021/11/30 10:09:34;;;;;;;0.50;0.50;;;;;;;3.00;95.21;99086.50;1927188;84;20901;-77
2021/11/30 10:12:36;;;;;;;0.50;0.50;;;;;;;3.01;95.18;99070.28;1927040;84;20426;-78
2021/11/30 10:15:45;;;;;;;0.60;0.60;;;;;;;3.06;95.28;99074.69;1925557;81;25092;-77
2021/11/30 10:18:48;;;;;;;0.96;0.60;;;;;;;3.03;95.08;99078.00;1927645;84;21223;-77
2021/11/30 10:21:55;;;;;;;0.75;0.40;;;;;;;3.04;95.14;99075.47;1928173;84;20212;-77
2021/11/30 10:25:25;;;;;;;0.60;0.60;;;;;;;3.05;95.13;99071.22;1927504;84;20353;-77
2021/11/30 10:28:29;;;;;;;0.46;0.46;;;;;;;3.08;95.24;99073.00;1927368;84;20360;-77
2021/11/30 10:42:45;;;;;;;0.40;0.40;;;;;;;3.04;95.23;99054.97;2089286;73;20447;-75
2021/11/30 11:17:29;;;;;;;1.62;0.52;;;;;;;3.19;94.91;99041.56;2104476;73;20377;-75
2021/11/30 11:26:30;;;;;;;0.40;0.40;;;;;;;3.23;94.68;99034.78;1912991;84;20934;-76
2021/11/30 11:52:08;;;;;;;0.49;0.49;;;;;;;3.32;94.57;99019.59;1995406;73;20376;-79
2021/11/30 12:06:00;;;;;;;0.71;0.40;;;;;;;3.32;94.71;99012.75;1933771;84;21255;-78
2021/11/30 12:14:55;;;;;;;1.48;0.35;;;;;;;3.38;94.87;99016.25;1926487;73;20856;-78
2021/11/30 12:26:51;;;;;;;1.30;0.61;;;;;;;3.36;95.03;99020.50;2073444;73;20098;-82
2021/11/30 12:29:54;;;;;;;0.40;0.30;;;;;;;3.40;95.14;99022.28;1932143;84;20826;-79
2021/11/30 12:33:00;;;;;;;0.66;0.30;;;;;;;3.42;94.99;99018.94;1931363;81;28072;-79
2021/11/30 12:36:04;;;;;;;0.30;0.30;;;;;;;3.47;95.09;99026.72;1933232;84;21054;-79
2021/11/30 12:39:11;;;;;;;0.40;0.40;;;;;;;3.46;95.00;99023.28;1934619;84;20337;-79
2021/11/30 12:42:13;;;;;;;0.46;0.30;;;;;;;3.46;95.05;99022.41;1929640;84;20371;-78
2021/11/30 12:45:43;;;;;;;0.30;0.30;;;;;;;3.45;95.19;99024.13;1924189;84;20799;-78
2021/11/30 12:48:46;;;;;;;0.54;0.54;;;;;;;3.48;95.28;99016.47;1925718;84;20851;-78
2021/11/30 12:52:06;;;;;;;0.40;0.40;;;;;;;3.52;95.28;99014.81;1925871;84;20367;-78
2021/11/30 12:55:11;;;;;;;1.23;0.40;;;;;;;3.54;95.35;99018.25;1929927;84;20329;-79
2021/11/30 12:58:45;;;;;;;0.60;0.30;;;;;;;3.56;95.42;99020.00;1930612;84;20430;-78
2021/11/30 13:02:17;;;;;;;0.47;0.40;;;;;;;3.59;95.46;99002.13;1927389;82;31244;-78
2021/11/30 13:05:24;;;;;;;1.06;0.40;;;;;;;3.58;95.52;99002.06;1930192;84;20389;-79
2021/11/30 13:08:27;;;;;;;0.49;0.49;;;;;;;3.62;95.61;99020.16;1929993;84;20400;-78
2021/11/30 13:11:32;;;;;;;0.30;0.30;;;;;;;3.64;95.67;99012.47;1930408;84;20329;-79
2021/11/30 13:14:37;;;;;;;0.36;0.36;;;;;;;3.67;95.72;99006.50;1929497;84;20379;-78
2021/11/30 13:17:42;;;;;;;0.38;0.30;;;;;;;3.66;95.72;99005.66;1928775;82;20942;-79
2021/11/30 13:20:45;;;;;;;0.30;0.30;;;;;;;3.66;95.92;98992.81;1929693;84;20325;-78
2021/11/30 13:23:48;;;;;;;0.35;0.35;;;;;;;3.71;96.00;98992.88;1930105;84;20756;-78
2021/11/30 13:26:51;;;;;;;0.34;0.34;;;;;;;3.72;96.03;98981.78;1929546;84;20481;-78
2021/11/30 13:30:11;;;;;;;1.10;0.57;;;;;;;3.76;96.06;98986.97;1929179;84;20415;-78
2021/11/30 13:33:19;;;;;;;0.40;0.40;;;;;;;3.79;96.07;98992.19;1930949;84;20345;-78
2021/11/30 13:36:31;;;;;;;0.40;0.40;;;;;;;3.80;96.13;98986.19;1929550;84;20438;-78
2021/11/30 13:39:43;;;;;;;0.40;0.40;;;;;;;3.82;96.00;98989.66;1928922;84;21145;-78
2021/11/30 13:42:52;;;;;;;0.40;0.40;;;;;;;3.84;95.99;98992.25;1928579;84;20333;-78
2021/11/30 13:46:03;;;;;;;0.70;0.40;;;;;;;3.82;95.83;98988.78;1926322;82;25772;-78
2021/11/30 13:49:07;;;;;;;0.30;0.30;;;;;;;3.86;95.96;98988.84;1928872;84;20308;-78
2021/11/30 13:52:21;;;;;;;0.30;0.30;;;;;;;3.85;95.80;98997.41;1929310;84;20352;-78
2021/11/30 13:55:25;;;;;;;0.40;0.30;;;;;;;3.83;95.75;98999.09;1928546;84;20724;-78
2021/11/30 13:58:51;;;;;;;0.71;0.40;;;;;;;3.83;95.85;98999.09;1928735;84;20426;-78
2021/11/30 14:01:54;;;;;;;0.40;0.40;;;;;;;3.84;95.96;98993.09;1927119;82;20353;-79
2021/11/30 14:04:59;;;;;;;0.36;0.30;;;;;;;3.83;95.99;98995.66;1929329;84;20337;-78
2021/11/30 14:08:02;;;;;;;0.54;0.34;;;;;;;3.84;96.12;98997.38;1928629;84;20806;-78
2021/11/30 14:11:04;;;;;;;0.30;0.30;;;;;;;3.86;96.14;98996.56;1930697;84;20779;-78
2021/11/30 14:14:10;;;;;;;1.19;1.15;;;;;;;3.88;96.13;98992.31;1930354;84;20473;-80
2021/11/30 14:22:05;;;;;;;0.64;0.50;;;;;;;3.89;96.12;99006.88;2114891;73;20819;-78
2021/11/30 14:25:20;;;;;;;0.60;0.60;;;;;;;3.89;96.18;99003.44;1925268;84;21452;-79
2021/11/30 14:28:26;;;;;;;0.49;0.49;;;;;;;3.88;96.25;99007.72;1930362;84;20345;-78
2021/11/30 14:31:49;;;;;;;0.50;0.50;;;;;;;3.91;96.36;99010.34;1929513;81;28926;-78
2021/11/30 14:35:01;;;;;;;0.50;0.50;;;;;;;3.90;96.34;99010.31;1932004;84;20387;-78
2021/11/30 14:38:04;;;;;;;0.40;0.40;;;;;;;3.93;96.52;99012.91;1931400;84;20369;-78
2021/11/30 14:41:09;;;;;;;0.50;0.50;;;;;;;3.92;96.48;99022.34;1929630;84;20381;-78
2021/11/30 14:44:32;;;;;;;0.98;0.50;;;;;;;3.92;96.60;99011.19;1928189;84;20378;-77
2021/11/30 14:47:35;;;;;;;0.46;0.46;;;;;;;3.90;96.65;99005.16;1926710;82;26376;-77
2021/11/30 14:51:07;;;;;;;0.60;0.60;;;;;;;3.97;96.76;99013.88;1928369;84;20859;-78
2021/11/30 14:54:12;;;;;;;0.93;0.50;;;;;;;3.96;96.69;99010.44;1929218;84;20480;-78
2021/11/30 14:57:27;;;;;;;1.34;0.60;;;;;;;3.99;96.78;99015.59;1930318;84;20469;-77
2021/11/30 15:00:33;;;;;;;0.39;0.39;;;;;;;3.98;96.68;99020.72;1929755;81;23176;-77
2021/11/30 15:03:41;;;;;;;0.55;0.55;;;;;;;3.97;96.77;99017.28;1930303;84;20441;-78
2021/11/30 15:06:48;;;;;;;0.40;0.40;;;;;;;3.98;96.76;99019.03;1929989;84;20369;-77
2021/11/30 15:09:51;;;;;;;0.40;0.40;;;;;;;3.99;96.78;99012.19;1929419;84;20188;-77
2021/11/30 15:13:08;;;;;;;1.00;0.50;;;;;;;4.01;96.84;99020.78;1929780;84;20352;-78
2021/11/30 15:16:29;;;;;;;0.50;0.50;;;;;;;4.00;96.81;99019.91;1928675;81;23003;-78
2021/11/30 15:19:40;;;;;;;0.57;0.40;;;;;;;4.04;96.80;99013.09;1929894;84;21208;-77
2021/11/30 15:22:43;;;;;;;0.50;0.50;;;;;;;4.05;96.80;99014.81;1929608;84;20381;-77
2021/11/30 15:25:58;;;;;;;1.04;0.50;;;;;;;4.05;96.68;99023.41;1930705;84;20480;-78
2021/11/30 15:29:01;;;;;;;0.41;0.41;;;;;;;4.05;96.64;99027.69;1930655;84;20337;-77
2021/11/30 15:32:08;;;;;;;0.44;0.44;;;;;;;4.03;96.68;99029.34;1925625;82;23608;-77
2021/11/30 15:35:12;;;;;;;0.46;0.46;;;;;;;4.01;96.69;99023.34;1926826;84;20471;-77
2021/11/30 15:38:16;;;;;;;0.77;0.41;;;;;;;3.98;96.81;99026.72;1924954;84;20473;-77
2021/11/30 15:41:18;;;;;;;0.40;0.40;;;;;;;3.99;96.91;99030.16;1924387;84;20355;-77
2021/11/30 15:44:21;;;;;;;0.50;0.50;;;;;;;3.99;96.90;99033.59;1924542;84;21147;-77
2021/11/30 15:47:24;;;;;;;0.40;0.40;;;;;;;4.02;96.88;99043.91;1922920;82;24665;-77
2021/11/30 15:50:27;;;;;;;0.45;0.45;;;;;;;4.02;96.91;99025.06;1925070;84;20451;-77
2021/11/30 15:53:31;;;;;;;0.50;0.50;;;;;;;4.03;96.92;99032.78;1924776;84;20383;-77
2021/11/30 16:00:02;;;;;;;0.60;0.55;;;;;;;4.05;96.93;99022.53;1924989;84;20390;-78
2021/11/30 16:03:04;;;;;;;0.40;0.40;;;;;;;4.04;96.91;99026.81;1924000;82;21445;-77
2021/11/30 16:06:10;;;;;;;1.40;0.50;;;;;;;4.07;96.97;99026.84;1925504;84;20398;-78
2021/11/30 16:09:12;;;;;;;0.60;0.60;;;;;;;4.06;96.83;99025.13;1925848;84;20384;-77
2021/11/30 16:12:15;;;;;;;2.10;1.91;;;;;;;4.09;96.90;99029.44;1925049;84;20373;-78
2021/11/30 16:15:18;;;;;;;0.70;0.70;;;;;;;4.11;96.85;99026.06;1923413;84;20462;-77
2021/11/30 16:18:21;;;;;;;0.94;0.50;;;;;;;4.14;96.91;99031.25;1924772;82;33540;-77
2021/11/30 16:21:23;;;;;;;0.82;0.66;;;;;;;4.15;96.78;99034.69;1923115;84;20350;-75
2021/11/30 16:24:27;;;;;;;0.63;0.40;;;;;;;4.16;96.81;99036.41;1925895;84;20835;-75
2021/11/30 16:27:29;;;;;;;0.70;0.60;;;;;;;4.15;96.73;99039.84;1926228;84;20362;-75
2021/11/30 16:30:32;;;;;;;0.93;0.54;;;;;;;4.17;96.77;99044.16;1920724;82;22472;-75
2021/11/30 16:33:36;;;;;;;0.60;0.60;;;;;;;4.16;96.72;99033.84;1926314;84;21283;-76
2021/11/30 16:36:42;;;;;;;0.60;0.60;;;;;;;4.17;96.84;99035.56;1926844;84;20517;-75
2021/11/30 16:39:46;;;;;;;0.49;0.49;;;;;;;4.18;96.87;99039.88;1925343;84;20365;-76
2021/11/30 16:42:49;;;;;;;0.50;0.50;;;;;;;4.17;96.79;99043.28;1925402;84;21900;-75
2021/11/30 16:45:54;;;;;;;0.60;0.60;;;;;;;4.18;96.97;99043.31;1923793;82;20325;-76
2021/11/30 16:48:57;;;;;;;0.50;0.50;;;;;;;4.20;96.89;99036.47;1925597;84;20403;-76
2021/11/30 16:52:00;;;;;;;0.51;0.40;;;;;;;4.22;96.94;99034.78;1925597;84;21576;-76
2021/11/30 16:55:08;;;;;;;0.81;0.60;;;;;;;4.23;96.91;99028.81;1925481;84;20383;-75
2021/11/30 16:58:11;;;;;;;0.45;0.45;;;;;;;4.24;96.94;99032.25;1924820;84;20804;-76
2021/11/30 17:01:14;;;;;;;0.70;0.59;;;;;;;4.25;97.00;99028.84;1924293;84;23372;-75
2021/11/30 17:04:17;;;;;;;1.20;0.60;;;;;;;4.26;97.01;99030.56;1925239;84;20881;-76